Time;durP1;ratioP1;P1;durP2;ratioP2;P2;SDS_P1;SDS_P2;PMS_P1;PMS_P2;Temp;Humidity;BMP_temperature;BMP_pressure;BME280_temperature;BME280_humidity;BME280_pressure;Samples;Min_cycle;Max_cycle;Signal;HPM_P1;HPM_P2
2022/08/28 00:00:26;;;;;;;0.70;0.70;;;16.20;99.90;;;;;;5136444;27;20675;-67
2022/08/28 00:02:53;;;;;;;2.13;1.52;;;16.20;99.90;;;;;;5136105;27;20182;-67
2022/08/28 00:05:22;;;;;;;0.77;0.73;;;16.30;99.90;;;;;;5135921;27;20657;-68
2022/08/28 00:07:48;;;;;;;0.45;0.45;;;16.30;99.90;;;;;;5136029;27;20282;-66
2022/08/28 00:10:16;;;;;;;0.60;0.60;;;16.40;99.90;;;;;;5136215;27;20239;-67
2022/08/28 00:12:43;;;;;;;0.47;0.47;;;16.40;99.90;;;;;;5136009;27;20187;-67
2022/08/28 00:15:12;;;;;;;0.60;0.60;;;16.40;99.90;;;;;;5136256;27;20201;-67
2022/08/28 00:17:38;;;;;;;0.60;0.50;;;16.50;99.90;;;;;;5135925;27;20210;-67
2022/08/28 00:20:06;;;;;;;0.60;0.60;;;16.50;99.90;;;;;;5136132;27;20182;-67
2022/08/28 00:22:32;;;;;;;0.65;0.65;;;16.50;99.90;;;;;;5135883;27;20194;-67
2022/08/28 00:24:58;;;;;;;1.30;0.85;;;16.60;99.90;;;;;;5135788;27;20226;-66
2022/08/28 00:30:09;;;;;;;1.20;0.82;;;16.60;99.90;;;;;;5135923;27;20209;-67
2022/08/28 00:32:35;;;;;;;0.75;0.70;;;16.50;99.90;;;;;;5135583;27;20206;-67
2022/08/28 00:35:01;;;;;;;0.70;0.70;;;16.50;99.90;;;;;;5117367;27;20191;-67
2022/08/28 00:37:27;;;;;;;0.60;0.60;;;16.50;99.90;;;;;;5135251;27;20222;-67
2022/08/28 00:39:53;;;;;;;0.60;0.60;;;16.50;99.90;;;;;;5135971;27;20202;-66
2022/08/28 00:42:19;;;;;;;1.88;1.27;;;16.50;99.90;;;;;;5135692;27;20187;-66
2022/08/28 00:44:45;;;;;;;0.70;0.63;;;16.50;99.90;;;;;;5117152;27;20736;-66
2022/08/28 00:47:11;;;;;;;0.90;0.90;;;16.50;99.90;;;;;;5135460;27;20209;-67
2022/08/28 00:49:46;;;;;;;0.57;0.57;;;16.50;99.90;;;;;;5135561;27;20550;-67
2022/08/28 00:52:14;;;;;;;1.13;1.02;;;16.40;99.90;;;;;;5135590;27;20197;-67
2022/08/28 00:55:14;;;;;;;1.92;0.98;;;16.30;99.90;;;;;;5117003;27;20194;-67
2022/08/28 00:57:47;;;;;;;0.68;0.68;;;16.30;99.90;;;;;;5130022;27;20210;-65
2022/08/28 01:00:32;;;;;;;0.40;0.40;;;16.30;99.90;;;;;;5134808;27;20592;-66
2022/08/28 01:02:59;;;;;;;0.93;0.93;;;16.30;99.90;;;;;;5135453;27;20193;-66
2022/08/28 01:05:26;;;;;;;0.63;0.63;;;16.30;99.90;;;;;;5135069;27;20187;-66
2022/08/28 01:07:52;;;;;;;0.55;0.55;;;16.20;99.90;;;;;;5135448;27;20190;-66
2022/08/28 01:10:21;;;;;;;0.65;0.63;;;16.20;99.90;;;;;;5135198;27;20191;-67
2022/08/28 01:12:48;;;;;;;1.30;1.13;;;16.10;99.90;;;;;;5135166;27;20273;-67
2022/08/28 01:15:19;;;;;;;0.98;0.80;;;16.00;99.90;;;;;;5135279;27;20202;-67
2022/08/28 01:17:52;;;;;;;0.82;0.80;;;15.90;99.90;;;;;;5135024;27;20186;-67
2022/08/28 01:20:24;;;;;;;1.40;1.30;;;15.80;99.90;;;;;;5135187;27;20298;-67
2022/08/28 01:23:23;;;;;;;0.93;0.93;;;15.80;99.90;;;;;;5126937;27;20187;-67
2022/08/28 01:25:49;;;;;;;0.63;0.63;;;15.80;99.90;;;;;;5116614;27;20214;-66
2022/08/28 01:28:15;;;;;;;1.67;1.13;;;15.90;99.90;;;;;;5135006;27;20725;-66
2022/08/28 01:30:44;;;;;;;0.60;0.60;;;15.90;99.90;;;;;;5134832;27;20226;-66
2022/08/28 01:33:10;;;;;;;0.47;0.47;;;16.00;99.90;;;;;;5134825;27;20206;-66
2022/08/28 01:35:39;;;;;;;1.00;0.90;;;15.90;99.90;;;;;;5134763;27;20293;-67
2022/08/28 01:38:05;;;;;;;0.60;0.60;;;15.90;99.90;;;;;;5134784;27;20699;-66
2022/08/28 01:40:42;;;;;;;0.50;0.50;;;15.90;99.90;;;;;;5134756;27;20195;-66
2022/08/28 01:43:17;;;;;;;0.95;0.90;;;15.90;99.90;;;;;;5114151;28;20661;-66
2022/08/28 01:45:47;;;;;;;0.50;0.50;;;15.90;99.90;;;;;;5113855;28;20214;-67
2022/08/28 01:48:15;;;;;;;0.75;0.70;;;15.90;99.90;;;;;;5096222;28;20187;-67
2022/08/28 01:50:41;;;;;;;0.40;0.40;;;15.80;99.90;;;;;;5113811;28;20187;-67
2022/08/28 01:53:08;;;;;;;0.55;0.55;;;15.90;99.90;;;;;;5114017;28;20657;-67
2022/08/28 01:55:35;;;;;;;0.57;0.57;;;15.90;99.90;;;;;;5113586;28;20618;-67
2022/08/28 01:58:04;;;;;;;0.50;0.50;;;15.90;99.90;;;;;;5095277;28;20196;-67
2022/08/28 02:00:30;;;;;;;0.40;0.40;;;15.90;99.90;;;;;;5100799;27;20262;-67
2022/08/28 02:02:58;;;;;;;0.77;0.77;;;16.00;99.90;;;;;;5133423;27;20243;-66
2022/08/28 02:05:27;;;;;;;0.77;0.77;;;16.00;99.90;;;;;;5133773;27;20289;-67
2022/08/28 02:07:52;;;;;;;0.50;0.50;;;16.00;99.90;;;;;;5134046;27;20182;-67
2022/08/28 02:10:21;;;;;;;0.75;0.75;;;16.00;99.90;;;;;;5133877;27;20199;-66
2022/08/28 02:12:48;;;;;;;0.65;0.65;;;16.00;99.90;;;;;;5133800;27;20645;-67
2022/08/28 02:15:13;;;;;;;0.55;0.55;;;16.10;99.90;;;;;;5133892;27;20187;-67
2022/08/28 02:17:39;;;;;;;0.88;0.88;;;16.10;99.90;;;;;;5134072;27;21559;-68
2022/08/28 02:20:06;;;;;;;0.90;0.90;;;16.10;99.90;;;;;;5133709;28;20202;-67
2022/08/28 02:22:32;;;;;;;1.20;1.10;;;16.10;99.90;;;;;;5133558;28;20198;-67
2022/08/28 02:24:58;;;;;;;0.63;0.63;;;16.10;99.90;;;;;;5115288;28;20585;-67
2022/08/28 02:27:24;;;;;;;0.47;0.47;;;16.10;99.90;;;;;;5133044;28;20198;-67
2022/08/28 02:29:50;;;;;;;0.73;0.73;;;16.10;99.90;;;;;;5115351;28;20737;-67
2022/08/28 02:32:17;;;;;;;0.47;0.47;;;16.20;99.90;;;;;;5133784;28;20247;-67
2022/08/28 02:34:43;;;;;;;0.70;0.70;;;16.20;99.90;;;;;;5115142;28;20696;-67
2022/08/28 02:37:12;;;;;;;0.85;0.70;;;16.20;99.90;;;;;;5133279;28;20218;-67
2022/08/28 02:39:38;;;;;;;0.70;0.70;;;16.10;99.90;;;;;;5133444;28;20195;-67
2022/08/28 02:42:05;;;;;;;0.40;0.40;;;16.10;99.90;;;;;;5133630;28;20191;-66
2022/08/28 02:44:30;;;;;;;0.43;0.43;;;16.10;99.90;;;;;;5133521;28;20645;-66
2022/08/28 02:46:56;;;;;;;0.60;0.60;;;16.20;99.90;;;;;;5133439;28;20209;-66
2022/08/28 02:49:22;;;;;;;1.42;0.80;;;16.10;99.90;;;;;;5133212;28;20245;-67
2022/08/28 02:51:49;;;;;;;0.50;0.50;;;16.10;99.90;;;;;;5133460;28;20199;-67
2022/08/28 02:54:15;;;;;;;0.43;0.43;;;16.10;99.90;;;;;;5133450;28;20263;-66
2022/08/28 02:56:40;;;;;;;0.50;0.50;;;16.10;99.90;;;;;;5133220;28;20675;-66
2022/08/28 02:59:06;;;;;;;0.60;0.60;;;16.10;99.90;;;;;;5133490;28;20246;-67
2022/08/28 03:01:32;;;;;;;0.90;0.73;;;16.10;99.90;;;;;;5132351;28;20202;-67
2022/08/28 03:04:01;;;;;;;0.60;0.60;;;16.10;99.90;;;;;;5146536;27;20194;-66
2022/08/28 03:06:28;;;;;;;0.65;0.65;;;16.10;99.90;;;;;;5153837;27;20202;-67
2022/08/28 03:08:54;;;;;;;0.68;0.68;;;16.10;99.90;;;;;;5154150;27;20190;-67
2022/08/28 03:11:21;;;;;;;1.65;0.60;;;16.10;99.90;;;;;;5135252;27;20194;-67
2022/08/28 03:13:47;;;;;;;0.45;0.45;;;16.10;99.90;;;;;;5154025;27;20192;-67
2022/08/28 03:16:13;;;;;;;0.60;0.50;;;16.10;99.90;;;;;;5138236;27;20198;-67
2022/08/28 03:18:40;;;;;;;0.63;0.63;;;16.10;99.90;;;;;;5132975;28;20211;-67
2022/08/28 03:21:06;;;;;;;0.70;0.70;;;16.10;99.90;;;;;;5133323;28;20270;-67
2022/08/28 03:23:31;;;;;;;0.35;0.35;;;16.10;99.90;;;;;;5133632;27;20274;-67
2022/08/28 03:26:12;;;;;;;0.43;0.43;;;16.10;99.90;;;;;;5114662;28;20681;-68
2022/08/28 03:28:43;;;;;;;0.50;0.50;;;16.10;99.90;;;;;;5116129;28;20203;-67
2022/08/28 03:31:12;;;;;;;0.50;0.50;;;16.10;99.90;;;;;;5116403;28;20550;-67
2022/08/28 03:33:40;;;;;;;0.30;0.30;;;16.10;99.90;;;;;;5118040;27;20205;-66
2022/08/28 03:36:06;;;;;;;2.65;0.75;;;16.10;99.90;;;;;;5136727;27;20218;-67
2022/08/28 03:38:32;;;;;;;0.40;0.40;;;16.10;99.90;;;;;;5118212;27;20227;-66
2022/08/28 03:40:58;;;;;;;0.30;0.30;;;16.10;99.90;;;;;;5097728;28;20199;-66
2022/08/28 03:43:24;;;;;;;0.40;0.40;;;16.10;99.90;;;;;;5115803;28;20188;-66
2022/08/28 03:45:56;;;;;;;0.30;0.30;;;16.10;99.90;;;;;;5115831;28;20215;-66
2022/08/28 03:48:23;;;;;;;0.30;0.30;;;16.00;99.90;;;;;;5115731;28;20188;-67
2022/08/28 03:50:52;;;;;;;0.40;0.40;;;16.10;99.90;;;;;;5116137;28;20200;-66
2022/08/28 03:53:19;;;;;;;0.30;0.30;;;16.00;99.90;;;;;;5115712;28;20187;-67
2022/08/28 03:55:45;;;;;;;0.30;0.30;;;16.10;99.90;;;;;;5115744;28;20680;-67
2022/08/28 03:58:10;;;;;;;0.40;0.40;;;16.00;99.90;;;;;;5115750;28;20191;-67
2022/08/28 04:00:36;;;;;;;0.40;0.40;;;16.00;99.90;;;;;;5115478;28;20195;-67
2022/08/28 04:03:03;;;;;;;0.32;0.32;;;16.00;99.90;;;;;;5097282;28;20278;-67
2022/08/28 04:05:29;;;;;;;0.38;0.38;;;16.00;99.90;;;;;;5115292;28;20673;-67
2022/08/28 04:07:54;;;;;;;0.32;0.32;;;16.00;99.90;;;;;;5097262;28;20226;-67
2022/08/28 04:10:20;;;;;;;0.40;0.40;;;16.00;99.90;;;;;;5115320;28;20240;-68
2022/08/28 04:12:46;;;;;;;0.40;0.40;;;15.90;99.90;;;;;;5115276;28;20561;-67
2022/08/28 04:15:12;;;;;;;0.40;0.40;;;15.90;99.90;;;;;;5115308;28;20624;-66
2022/08/28 04:17:39;;;;;;;0.40;0.40;;;15.90;99.90;;;;;;5115230;28;20224;-67
2022/08/28 04:20:07;;;;;;;0.40;0.40;;;15.90;99.90;;;;;;5115320;28;20662;-67
2022/08/28 04:22:33;;;;;;;0.50;0.50;;;15.80;99.90;;;;;;5096749;28;20266;-67
2022/08/28 04:24:59;;;;;;;0.50;0.50;;;15.80;99.90;;;;;;5115018;28;20252;-67
2022/08/28 04:27:25;;;;;;;0.30;0.30;;;15.80;99.90;;;;;;5114553;28;20203;-68
2022/08/28 04:29:51;;;;;;;0.40;0.40;;;15.80;99.90;;;;;;5115060;28;20560;-67
2022/08/28 04:32:17;;;;;;;0.30;0.30;;;15.80;99.90;;;;;;5096758;28;20280;-67
2022/08/28 04:34:42;;;;;;;0.40;0.40;;;15.70;99.90;;;;;;5114155;28;20183;-67
2022/08/28 04:37:08;;;;;;;0.30;0.30;;;15.70;99.90;;;;;;5096039;28;20227;-67
2022/08/28 04:39:34;;;;;;;0.32;0.32;;;15.70;99.90;;;;;;5114714;28;20207;-67
2022/08/28 04:42:00;;;;;;;0.40;0.40;;;15.70;99.90;;;;;;5115184;28;20600;-67
2022/08/28 04:44:25;;;;;;;0.68;0.68;;;15.70;99.90;;;;;;5114646;28;20187;-67
2022/08/28 04:46:52;;;;;;;0.40;0.40;;;15.80;99.90;;;;;;5114669;28;20290;-68
2022/08/28 04:49:17;;;;;;;0.40;0.40;;;15.80;99.90;;;;;;5114678;28;20533;-67
2022/08/28 04:51:43;;;;;;;0.40;0.40;;;15.80;99.90;;;;;;5114617;28;20188;-67
2022/08/28 04:54:12;;;;;;;0.40;0.40;;;15.80;99.90;;;;;;5114715;28;20192;-67
2022/08/28 04:56:39;;;;;;;0.40;0.40;;;15.80;99.90;;;;;;5114455;28;20206;-67
2022/08/28 04:59:06;;;;;;;0.38;0.38;;;15.80;99.90;;;;;;5114635;28;20267;-67
2022/08/28 05:01:32;;;;;;;0.40;0.40;;;15.80;99.90;;;;;;5114298;28;20194;-67
2022/08/28 05:04:01;;;;;;;0.40;0.40;;;15.90;99.90;;;;;;5096179;28;20200;-67
2022/08/28 05:06:28;;;;;;;0.40;0.40;;;15.90;99.90;;;;;;5095887;28;20219;-67
2022/08/28 05:08:55;;;;;;;0.40;0.40;;;15.90;99.90;;;;;;5114355;28;20202;-67
2022/08/28 05:11:23;;;;;;;0.30;0.30;;;15.90;99.90;;;;;;5113921;28;20203;-67
2022/08/28 05:13:50;;;;;;;0.40;0.40;;;15.90;99.90;;;;;;5114354;28;20188;-68
2022/08/28 05:16:16;;;;;;;0.50;0.50;;;15.90;99.90;;;;;;5095978;28;20199;-67
2022/08/28 05:18:43;;;;;;;0.30;0.30;;;15.90;99.90;;;;;;5095594;28;20222;-68
2022/08/28 05:21:14;;;;;;;1.23;1.13;;;15.90;99.90;;;;;;5114160;28;20221;-68
2022/08/28 05:23:40;;;;;;;0.40;0.40;;;15.90;99.90;;;;;;5113959;28;20214;-67
2022/08/28 05:26:11;;;;;;;0.30;0.30;;;15.90;99.90;;;;;;5113550;28;20707;-67
2022/08/28 05:28:38;;;;;;;0.30;0.30;;;15.90;99.90;;;;;;5113955;28;20183;-68
2022/08/28 05:31:17;;;;;;;0.30;0.30;;;15.90;99.90;;;;;;5114080;28;20180;-67
2022/08/28 05:33:44;;;;;;;0.32;0.32;;;16.00;99.90;;;;;;5113786;28;20190;-67
2022/08/28 05:36:11;;;;;;;0.30;0.30;;;15.90;99.90;;;;;;5113782;28;20718;-67
2022/08/28 05:38:37;;;;;;;0.38;0.38;;;16.00;99.90;;;;;;5113508;28;20231;-67
2022/08/28 05:41:03;;;;;;;0.30;0.30;;;16.00;99.90;;;;;;5113981;28;20195;-68
2022/08/28 05:43:30;;;;;;;0.40;0.40;;;16.00;99.90;;;;;;5095312;28;20203;-67
2022/08/28 05:46:01;;;;;;;0.30;0.30;;;16.00;99.90;;;;;;5113359;28;20630;-67
2022/08/28 05:48:30;;;;;;;0.30;0.30;;;16.10;99.90;;;;;;5095090;28;20195;-68
2022/08/28 05:51:07;;;;;;;0.30;0.30;;;16.10;99.90;;;;;;5113609;28;20184;-67
2022/08/28 05:53:40;;;;;;;0.40;0.40;;;16.00;99.90;;;;;;5113321;28;20666;-67
2022/08/28 05:56:08;;;;;;;0.30;0.30;;;16.00;99.90;;;;;;5113495;28;20187;-67
2022/08/28 05:58:34;;;;;;;0.40;0.40;;;16.00;99.90;;;;;;5113392;28;20661;-67
2022/08/28 06:01:26;;;;;;;0.30;0.30;;;16.00;99.90;;;;;;5113455;28;20195;-67
2022/08/28 06:04:08;;;;;;;0.40;0.40;;;16.00;99.90;;;;;;5100734;28;20224;-67
2022/08/28 06:06:35;;;;;;;0.40;0.40;;;16.00;99.90;;;;;;5092818;28;20204;-67
2022/08/28 06:09:08;;;;;;;0.40;0.40;;;16.10;99.90;;;;;;5111936;28;20191;-67
2022/08/28 06:11:34;;;;;;;0.40;0.40;;;16.10;99.90;;;;;;5094940;28;20540;-67
2022/08/28 06:14:03;;;;;;;0.30;0.30;;;16.10;99.90;;;;;;5113353;28;20188;-67
2022/08/28 06:16:30;;;;;;;0.50;0.50;;;16.10;99.90;;;;;;5113166;28;20252;-67
2022/08/28 06:18:56;;;;;;;0.50;0.50;;;16.00;99.90;;;;;;5113121;28;20666;-68
2022/08/28 06:21:23;;;;;;;0.30;0.30;;;16.00;99.90;;;;;;5112918;28;20670;-68
2022/08/28 06:23:49;;;;;;;0.40;0.40;;;15.90;99.90;;;;;;5094901;28;20662;-68
2022/08/28 06:26:15;;;;;;;0.40;0.40;;;15.90;99.90;;;;;;5111250;28;20678;-67
2022/08/28 06:28:41;;;;;;;0.45;0.45;;;15.80;99.90;;;;;;5113018;28;20187;-67
2022/08/28 06:31:09;;;;;;;0.40;0.40;;;15.70;99.90;;;;;;5113267;28;20191;-68
2022/08/28 06:33:35;;;;;;;0.43;0.43;;;15.70;99.90;;;;;;5112922;28;20677;-67
2022/08/28 06:36:03;;;;;;;0.40;0.40;;;15.60;99.90;;;;;;5113018;28;20179;-67
2022/08/28 06:38:29;;;;;;;0.40;0.40;;;15.60;99.90;;;;;;5112549;28;20227;-67
2022/08/28 06:40:56;;;;;;;0.40;0.40;;;15.60;99.90;;;;;;5113093;28;20215;-68
2022/08/28 06:43:26;;;;;;;0.50;0.50;;;15.60;99.90;;;;;;5112651;28;20199;-67
2022/08/28 06:45:54;;;;;;;0.40;0.40;;;15.50;99.90;;;;;;5112933;28;20204;-68
2022/08/28 06:48:22;;;;;;;0.50;0.50;;;15.50;99.90;;;;;;5112858;28;20195;-67
2022/08/28 06:50:51;;;;;;;0.63;0.50;;;15.50;99.90;;;;;;5111434;28;20224;-67
2022/08/28 06:53:19;;;;;;;0.50;0.50;;;15.50;99.90;;;;;;5113015;28;20195;-67
2022/08/28 06:55:54;;;;;;;0.40;0.40;;;15.50;99.90;;;;;;5112925;28;20192;-69
2022/08/28 06:58:19;;;;;;;0.40;0.40;;;15.40;99.90;;;;;;5113083;28;20559;-68
2022/08/28 07:00:45;;;;;;;0.40;0.40;;;15.40;99.90;;;;;;5111914;28;20286;-67
2022/08/28 07:03:12;;;;;;;0.40;0.40;;;15.40;99.90;;;;;;5116706;28;20258;-68
2022/08/28 07:05:38;;;;;;;0.50;0.50;;;15.40;99.90;;;;;;5116551;28;20649;-68
2022/08/28 07:08:03;;;;;;;0.45;0.45;;;15.40;99.90;;;;;;5116725;28;20278;-67
2022/08/28 07:10:30;;;;;;;0.35;0.35;;;15.40;99.90;;;;;;5116535;28;20264;-68
2022/08/28 07:12:56;;;;;;;1.67;1.00;;;15.40;99.90;;;;;;5116670;28;20638;-67
2022/08/28 07:15:22;;;;;;;4.57;0.80;;;15.40;99.90;;;;;;5115132;28;20188;-68
2022/08/28 07:17:47;;;;;;;0.40;0.40;;;15.40;99.90;;;;;;5116548;28;20676;-67
2022/08/28 07:20:13;;;;;;;0.50;0.50;;;15.50;99.90;;;;;;5116432;28;20665;-67
2022/08/28 07:22:42;;;;;;;0.50;0.50;;;15.60;99.90;;;;;;5116185;28;20195;-68
2022/08/28 07:25:09;;;;;;;0.40;0.40;;;15.60;99.90;;;;;;5116418;28;20194;-67
2022/08/28 07:27:37;;;;;;;0.40;0.40;;;15.60;99.90;;;;;;5098276;28;20337;-67
2022/08/28 07:30:05;;;;;;;0.40;0.40;;;15.60;99.90;;;;;;5094660;28;20193;-67
2022/08/28 07:32:31;;;;;;;0.40;0.40;;;15.60;99.90;;;;;;5094796;28;20662;-66
2022/08/28 07:34:58;;;;;;;0.40;0.40;;;15.60;99.90;;;;;;5095853;28;20180;-67
2022/08/28 07:37:24;;;;;;;0.40;0.40;;;15.50;99.90;;;;;;5099033;28;20230;-68
2022/08/28 07:39:50;;;;;;;3.67;1.02;;;15.60;99.90;;;;;;5116172;28;20195;-67
2022/08/28 07:44:48;;;;;;;0.82;0.82;;;15.80;99.90;;;;;;5116106;28;20240;-68
2022/08/28 07:45:01;;;;;;;0.40;0.40;;;15.90;99.90;;;;;;5115860;28;20196;-67
2022/08/28 07:47:30;;;;;;;0.40;0.40;;;16.00;99.90;;;;;;5114397;28;20745;-68
2022/08/28 07:49:59;;;;;;;0.40;0.40;;;16.10;99.90;;;;;;5097449;28;20192;-68
2022/08/28 07:52:28;;;;;;;0.40;0.40;;;16.20;99.90;;;;;;5115727;28;20194;-67
2022/08/28 07:54:56;;;;;;;0.40;0.40;;;16.20;99.90;;;;;;5115868;28;20184;-67
2022/08/28 07:57:22;;;;;;;0.50;0.50;;;16.40;99.90;;;;;;5097246;28;20196;-68
2022/08/28 07:59:48;;;;;;;0.32;0.32;;;16.60;99.90;;;;;;5081501;28;20722;-67
2022/08/28 08:02:15;;;;;;;0.98;0.55;;;16.70;99.90;;;;;;5115596;28;20196;-67
2022/08/28 08:04:41;;;;;;;0.57;0.57;;;17.00;99.90;;;;;;5115536;28;20191;-67
2022/08/28 08:07:07;;;;;;;0.40;0.40;;;17.30;99.90;;;;;;5115555;28;20207;-68
2022/08/28 08:09:37;;;;;;;0.43;0.43;;;17.40;99.90;;;;;;5115138;28;20190;-67
2022/08/28 08:12:04;;;;;;;0.38;0.38;;;17.70;99.90;;;;;;5115433;28;20202;-67
2022/08/28 08:14:30;;;;;;;0.40;0.40;;;17.80;99.90;;;;;;5115096;28;20184;-67
2022/08/28 08:17:00;;;;;;;0.32;0.32;;;18.00;99.90;;;;;;5115449;28;20555;-67
2022/08/28 08:19:26;;;;;;;0.30;0.30;;;18.20;99.90;;;;;;5096704;28;20201;-68
2022/08/28 08:21:52;;;;;;;0.60;0.60;;;18.30;99.90;;;;;;5115235;28;20199;-67
2022/08/28 08:24:19;;;;;;;0.30;0.30;;;18.30;99.90;;;;;;5096862;28;20202;-67
2022/08/28 08:26:50;;;;;;;0.30;0.30;;;18.30;99.90;;;;;;5093006;28;20227;-67
2022/08/28 08:29:16;;;;;;;0.40;0.40;;;18.40;99.90;;;;;;5094787;28;20583;-68
2022/08/28 08:31:42;;;;;;;0.20;0.20;;;18.40;99.90;;;;;;5094442;28;20219;-67
2022/08/28 08:34:08;;;;;;;0.40;0.40;;;18.60;99.90;;;;;;5099252;28;20277;-67
2022/08/28 08:36:36;;;;;;;0.30;0.30;;;18.70;99.90;;;;;;5114559;28;20191;-67
2022/08/28 08:39:04;;;;;;;0.30;0.30;;;18.70;99.90;;;;;;5114973;28;20203;-67
2022/08/28 08:41:46;;;;;;;0.30;0.30;;;18.80;99.90;;;;;;5114545;28;20203;-67
2022/08/28 08:44:22;;;;;;;0.30;0.30;;;18.90;99.90;;;;;;5114877;28;20195;-67
2022/08/28 08:47:18;;;;;;;0.30;0.30;;;18.80;99.90;;;;;;5096344;28;20210;-67
2022/08/28 08:50:16;;;;;;;0.30;0.30;;;18.70;99.90;;;;;;5114950;28;20684;-67
2022/08/28 08:53:23;;;;;;;0.52;0.52;;;18.70;99.90;;;;;;5114321;28;20681;-67
2022/08/28 08:55:51;;;;;;;0.30;0.30;;;18.70;99.90;;;;;;5065045;28;20260;-67
2022/08/28 08:58:23;;;;;;;2.92;0.55;;;18.60;99.90;;;;;;5096337;28;20196;-67
2022/08/28 09:01:12;;;;;;;0.50;0.50;;;18.40;99.90;;;;;;5114418;28;20239;-67
2022/08/28 09:03:48;;;;;;;0.30;0.30;;;18.30;99.90;;;;;;5096043;28;20237;-67
2022/08/28 09:06:48;;;;;;;0.30;0.30;;;18.30;99.90;;;;;;5095998;28;20290;-67
2022/08/28 09:09:49;;;;;;;1.10;0.60;;;18.40;99.90;;;;;;5096724;28;20680;-67
2022/08/28 09:12:15;;;;;;;0.52;0.40;;;18.40;99.90;;;;;;5099474;28;20728;-67
2022/08/28 09:15:07;;;;;;;0.30;0.30;;;18.40;99.90;;;;;;5114033;28;20211;-67
2022/08/28 09:18:09;;;;;;;0.50;0.50;;;18.40;99.90;;;;;;5114079;28;20192;-67
2022/08/28 09:20:35;;;;;;;0.30;0.30;;;18.40;99.90;;;;;;5060657;28;20234;-67
2022/08/28 09:23:00;;;;;;;0.20;0.20;;;18.40;99.90;;;;;;5095411;28;20606;-68
2022/08/28 09:25:46;;;;;;;0.50;0.50;;;18.60;99.90;;;;;;5113723;28;20278;-67
2022/08/28 09:28:21;;;;;;;0.30;0.30;;;18.70;99.90;;;;;;5093590;28;20680;-68
2022/08/28 09:31:30;;;;;;;0.20;0.20;;;18.60;99.90;;;;;;5101992;28;20278;-67
2022/08/28 09:34:14;;;;;;;0.38;0.38;;;18.50;99.90;;;;;;5113787;28;20739;-67
2022/08/28 09:36:41;;;;;;;0.50;0.50;;;18.50;99.90;;;;;;5113474;28;20245;-68
2022/08/28 09:39:09;;;;;;;0.43;0.43;;;18.40;99.90;;;;;;5113868;28;20198;-67
2022/08/28 09:44:27;;;;;;;0.95;0.63;;;18.40;99.90;;;;;;5113628;28;20321;-67
2022/08/28 09:46:53;;;;;;;1.65;0.70;;;18.40;99.90;;;;;;5113615;28;20643;-68
2022/08/28 09:49:25;;;;;;;0.20;0.20;;;18.50;99.90;;;;;;5103673;28;20555;-69
2022/08/28 09:51:53;;;;;;;0.40;0.40;;;18.50;99.90;;;;;;5093839;28;20249;-67
2022/08/28 09:54:22;;;;;;;0.30;0.30;;;18.70;99.90;;;;;;5113542;28;20192;-68
2022/08/28 09:56:49;;;;;;;0.30;0.30;;;18.80;99.90;;;;;;5113637;28;20203;-68
2022/08/28 09:59:18;;;;;;;0.30;0.30;;;18.90;99.90;;;;;;5113459;28;20200;-67
2022/08/28 10:01:51;;;;;;;0.30;0.30;;;18.90;99.90;;;;;;5113381;28;20199;-68
2022/08/28 10:04:17;;;;;;;0.32;0.32;;;19.00;99.90;;;;;;5113592;28;20192;-68
2022/08/28 10:06:53;;;;;;;0.47;0.47;;;18.80;99.90;;;;;;5113184;28;20235;-68
2022/08/28 10:09:27;;;;;;;1.05;0.63;;;18.80;99.90;;;;;;5074724;28;20704;-68
2022/08/28 10:12:12;;;;;;;0.47;0.47;;;18.80;99.90;;;;;;5093033;28;20253;-68
2022/08/28 10:14:51;;;;;;;0.30;0.30;;;18.90;99.90;;;;;;5092884;28;20226;-67
2022/08/28 10:17:35;;;;;;;0.20;0.20;;;18.80;99.90;;;;;;5093014;28;20188;-68
2022/08/28 10:20:10;;;;;;;0.30;0.30;;;19.00;99.90;;;;;;5092761;28;20192;-67
2022/08/28 10:22:36;;;;;;;0.30;0.30;;;19.10;99.90;;;;;;5074616;28;20202;-67
2022/08/28 10:25:18;;;;;;;0.30;0.30;;;19.20;99.90;;;;;;5092762;28;20562;-67
2022/08/28 10:27:50;;;;;;;0.40;0.40;;;19.50;99.90;;;;;;5111011;28;20203;-68
2022/08/28 10:30:20;;;;;;;0.50;0.50;;;19.80;99.90;;;;;;5113156;28;20183;-68
2022/08/28 10:33:09;;;;;;;0.22;0.22;;;20.00;99.90;;;;;;5113096;28;20202;-68
2022/08/28 10:35:56;;;;;;;0.20;0.20;;;20.00;99.90;;;;;;5117217;28;20235;-68
2022/08/28 10:38:38;;;;;;;1.33;0.57;;;20.00;99.90;;;;;;5117023;28;20302;-68
2022/08/28 10:41:27;;;;;;;0.43;0.43;;;20.10;99.90;;;;;;5098911;28;20195;-68
2022/08/28 10:43:54;;;;;;;0.32;0.32;;;20.20;99.90;;;;;;5117296;28;20600;-68
2022/08/28 10:46:34;;;;;;;0.30;0.30;;;20.50;99.90;;;;;;5100645;28;20682;-68
2022/08/28 10:49:05;;;;;;;0.30;0.30;;;20.70;99.90;;;;;;5104706;28;20234;-68
2022/08/28 10:51:39;;;;;;;0.30;0.30;;;20.90;99.90;;;;;;5116915;28;20236;-68
2022/08/28 10:54:32;;;;;;;0.20;0.20;;;20.90;99.90;;;;;;5116917;28;20179;-68
2022/08/28 10:57:33;;;;;;;0.30;0.30;;;21.20;99.90;;;;;;5116891;28;20199;-68
2022/08/28 11:00:11;;;;;;;0.32;0.30;;;20.70;99.90;;;;;;5098512;28;20722;-69
2022/08/28 11:02:40;;;;;;;0.30;0.30;;;20.30;99.90;;;;;;5116547;28;20191;-68
2022/08/28 11:05:07;;;;;;;0.25;0.25;;;19.90;99.90;;;;;;5116649;28;20591;-68
2022/08/28 11:07:39;;;;;;;0.35;0.35;;;19.80;99.90;;;;;;5098232;28;20210;-68
2022/08/28 11:10:39;;;;;;;0.30;0.30;;;19.70;99.90;;;;;;5116735;28;20266;-67
2022/08/28 11:13:08;;;;;;;0.20;0.20;;;19.80;99.90;;;;;;5116613;28;20676;-67
2022/08/28 11:15:35;;;;;;;0.22;0.22;;;19.90;99.90;;;;;;5116431;28;20184;-68
2022/08/28 11:18:33;;;;;;;0.35;0.35;;;20.10;99.90;;;;;;5116555;28;20285;-68
2022/08/28 11:21:22;;;;;;;0.30;0.30;;;20.30;99.90;;;;;;5116540;28;20308;-68
2022/08/28 11:23:59;;;;;;;1.10;0.60;;;20.40;99.90;;;;;;5097786;28;20199;-68
2022/08/28 11:27:08;;;;;;;0.28;0.28;;;20.40;99.90;;;;;;5108015;28;20195;-68
2022/08/28 11:30:08;;;;;;;0.30;0.30;;;20.40;99.90;;;;;;5084523;28;20287;-67
2022/08/28 11:32:33;;;;;;;0.30;0.30;;;20.30;99.90;;;;;;5077571;28;20279;-67
2022/08/28 11:35:11;;;;;;;0.50;0.40;;;20.00;99.90;;;;;;5095793;28;20273;-68
2022/08/28 11:37:52;;;;;;;0.30;0.30;;;20.00;99.90;;;;;;5095449;28;20291;-67
2022/08/28 11:40:32;;;;;;;0.30;0.30;;;20.10;99.90;;;;;;5077881;28;20204;-68
2022/08/28 11:43:19;;;;;;;0.20;0.20;;;20.20;99.90;;;;;;5110640;28;20229;-67
2022/08/28 11:45:45;;;;;;;1.38;0.65;;;20.20;99.90;;;;;;5096810;28;20210;-67
2022/08/28 11:48:32;;;;;;;0.30;0.30;;;20.40;99.90;;;;;;5115908;28;20188;-68
2022/08/28 11:51:05;;;;;;;0.50;0.50;;;20.60;99.90;;;;;;5115902;28;20194;-67
2022/08/28 11:53:46;;;;;;;0.50;0.50;;;21.00;99.90;;;;;;5115605;28;20190;-68
2022/08/28 11:56:26;;;;;;;0.25;0.25;;;21.40;99.90;;;;;;5115786;28;20241;-68
2022/08/28 11:59:09;;;;;;;0.30;0.30;;;21.80;99.90;;;;;;5097436;28;20230;-68
2022/08/28 12:01:35;;;;;;;0.25;0.25;;;21.40;99.90;;;;;;5115270;28;20236;-68
2022/08/28 12:04:07;;;;;;;0.28;0.28;;;21.30;99.90;;;;;;5115695;28;20219;-68
2022/08/28 12:06:48;;;;;;;1.75;0.40;;;20.90;99.90;;;;;;5115394;28;20657;-67
2022/08/28 12:09:35;;;;;;;0.20;0.20;;;21.30;99.90;;;;;;5115629;28;20179;-69
2022/08/28 12:12:12;;;;;;;0.52;0.30;;;21.70;99.90;;;;;;5115426;28;20191;-67
2022/08/28 12:14:38;;;;;;;0.20;0.20;;;21.70;99.90;;;;;;5097304;28;20274;-68
2022/08/28 12:17:19;;;;;;;0.20;0.20;;;21.60;99.90;;;;;;5115388;28;20202;-68
2022/08/28 12:19:55;;;;;;;0.30;0.30;;;21.30;99.90;;;;;;5115298;28;20195;-68
2022/08/28 12:22:25;;;;;;;0.20;0.20;;;20.80;99.90;;;;;;5115071;28;20199;-68
2022/08/28 12:25:04;;;;;;;0.20;0.20;;;20.60;99.90;;;;;;5115235;28;20199;-68
2022/08/28 12:27:30;;;;;;;0.20;0.20;;;20.40;99.90;;;;;;5114732;28;20290;-67
2022/08/28 12:29:59;;;;;;;0.25;0.25;;;20.30;99.90;;;;;;5096888;28;20198;-68
2022/08/28 12:32:49;;;;;;;0.30;0.30;;;20.10;99.90;;;;;;5114935;28;20672;-67
2022/08/28 12:35:22;;;;;;;0.40;0.40;;;19.90;99.90;;;;;;5115025;28;20183;-68
2022/08/28 12:37:54;;;;;;;0.30;0.30;;;19.90;99.90;;;;;;5114591;28;20227;-67
2022/08/28 12:40:48;;;;;;;0.40;0.40;;;19.80;99.90;;;;;;5114758;28;20195;-67
2022/08/28 12:43:30;;;;;;;0.63;0.30;;;19.80;99.90;;;;;;5094535;28;20196;-68
2022/08/28 12:46:00;;;;;;;0.20;0.20;;;20.00;99.90;;;;;;5094398;28;20189;-67
2022/08/28 12:48:33;;;;;;;0.30;0.30;;;20.10;99.90;;;;;;5076118;28;20192;-67
2022/08/28 12:51:02;;;;;;;0.30;0.30;;;20.10;99.90;;;;;;5076191;28;20196;-67
2022/08/28 12:53:47;;;;;;;1.02;0.32;;;20.00;99.90;;;;;;5094128;28;20249;-68
2022/08/28 12:56:16;;;;;;;0.73;0.40;;;20.30;99.90;;;;;;5080739;28;20727;-67
2022/08/28 12:58:43;;;;;;;0.20;0.20;;;20.30;99.90;;;;;;5114477;28;20271;-67
2022/08/28 13:01:12;;;;;;;0.28;0.28;;;20.40;99.90;;;;;;5114839;28;20698;-67
2022/08/28 13:04:06;;;;;;;0.30;0.30;;;20.30;99.90;;;;;;5114251;28;20252;-67
2022/08/28 13:06:35;;;;;;;0.47;0.47;;;20.30;99.90;;;;;;5110620;28;20681;-67
2022/08/28 13:09:03;;;;;;;0.20;0.20;;;20.30;99.90;;;;;;5096089;28;20657;-67
2022/08/28 13:11:34;;;;;;;0.45;0.45;;;20.30;99.90;;;;;;5114161;28;20187;-68
2022/08/28 13:13:59;;;;;;;0.20;0.20;;;20.30;99.90;;;;;;5114310;28;20198;-68